Time;durP1;ratioP1;P1;durP2;ratioP2;P2;SDS_P1;SDS_P2;PMS_P1;PMS_P2;Temp;Humidity;BMP_temperature;BMP_pressure;BME280_temperature;BME280_humidity;BME280_pressure;Samples;Min_cycle;Max_cycle;Signal;HPM_P1;HPM_P2
2022/05/10 00:00:42;;;;;;;11.93;6.40;;;;;;;15.32;62.32;101914.16;7394638;19;20022;-60
2022/05/10 00:03:11;;;;;;;11.70;6.40;;;;;;;15.19;62.78;101907.72;7394932;19;20018;-58
2022/05/10 00:05:45;;;;;;;12.40;6.43;;;;;;;15.27;62.39;101910.00;7392509;19;20019;-59
2022/05/10 00:08:16;;;;;;;15.07;7.85;;;;;;;15.20;62.83;101901.50;7392896;19;20016;-58
2022/05/10 00:10:46;;;;;;;13.48;7.90;;;;;;;15.20;63.02;101893.59;7394331;19;20018;-59
2022/05/10 00:13:16;;;;;;;14.15;8.00;;;;;;;15.20;62.77;101904.16;7397040;19;20007;-60
2022/05/10 00:15:47;;;;;;;17.88;10.05;;;;;;;15.22;63.00;101905.78;7397408;19;20030;-58
2022/05/10 00:18:18;;;;;;;13.15;8.00;;;;;;;15.10;64.23;101895.81;7397205;19;20035;-56
2022/05/10 00:20:50;;;;;;;12.48;7.63;;;;;;;15.17;63.58;101897.25;7392473;19;20017;-59
2022/05/10 00:23:19;;;;;;;12.25;8.52;;;;;;;15.12;64.58;101893.94;7390074;19;20021;-59
2022/05/10 00:25:48;;;;;;;11.25;7.72;;;;;;;15.03;64.57;101887.31;7389249;19;20015;-57
2022/05/10 00:28:17;;;;;;;15.95;8.52;;;;;;;14.93;65.66;101887.78;7389773;19;20018;-60
2022/05/10 00:30:46;;;;;;;13.20;8.32;;;;;;;14.90;65.73;101882.66;7389327;19;20026;-57
2022/05/10 00:33:19;;;;;;;12.00;7.47;;;;;;;14.93;65.79;101878.13;7388299;19;20395;-60
2022/05/10 00:35:51;;;;;;;12.88;7.95;;;;;;;15.10;64.64;101873.81;7389418;19;20014;-57
2022/05/10 00:38:23;;;;;;;14.80;9.43;;;;;;;15.16;65.01;101878.84;7390386;19;20014;-60
2022/05/10 00:40:53;;;;;;;13.85;10.30;;;;;;;14.94;65.04;101881.59;7388833;19;20126;-59
2022/05/10 00:43:30;;;;;;;14.30;10.77;;;;;;;14.98;64.80;101880.53;7392779;19;20014;-54
2022/05/10 00:46:03;;;;;;;15.15;9.80;;;;;;;14.98;65.43;101873.47;7392808;19;20014;-57
2022/05/10 00:48:35;;;;;;;;;;;;;;;15.16;64.62;101882.31;7391926;19;20015;-54
2022/05/10 00:51:14;;;;;;;15.20;11.07;;;;;;;14.99;65.46;101874.34;7390335;19;19922;-55
2022/05/10 00:53:53;;;;;;;14.80;9.68;;;;;;;14.95;66.61;101872.75;7397951;19;20014;-59
2022/05/10 00:56:31;;;;;;;14.60;9.07;;;;;;;14.80;66.85;101869.03;7395667;19;20016;-57
2022/05/10 00:59:03;;;;;;;14.80;10.88;;;;;;;14.97;66.30;101865.63;7399643;19;20022;-56
2022/05/10 01:01:34;;;;;;;14.13;8.65;;;;;;;14.97;66.77;101865.63;7398446;19;20010;-54
2022/05/10 01:04:14;;;;;;;15.55;9.75;;;;;;;14.97;66.06;101870.91;7400318;19;20397;-55
2022/05/10 01:06:49;;;;;;;14.32;9.75;;;;;;;14.75;67.67;101852.56;7396484;19;20014;-58
2022/05/10 01:09:25;;;;;;;15.57;9.25;;;;;;;14.80;68.15;101856.72;7396149;19;20022;-58
2022/05/10 01:11:59;;;;;;;18.10;10.30;;;;;;;14.91;66.45;101853.56;7397005;19;20023;-58
2022/05/10 01:14:32;;;;;;;16.17;10.77;;;;;;;14.75;67.40;101849.91;7399426;19;20018;-55
2022/05/10 01:17:01;;;;;;;15.65;10.25;;;;;;;14.80;67.61;101848.78;7396917;19;20014;-55
2022/05/10 01:19:30;;;;;;;23.08;11.25;;;;;;;14.64;68.17;101851.28;7397807;19;20345;-55
2022/05/10 01:22:19;;;;;;;14.77;10.20;;;;;;;14.70;68.96;101852.78;7396054;19;20010;-62
2022/05/10 01:25:04;;;;;;;23.58;12.25;;;;;;;14.70;68.18;101852.78;7396247;19;20025;-58
2022/05/10 01:27:46;;;;;;;19.05;11.15;;;;;;;14.89;67.52;101850.16;7395345;19;20082;-58
2022/05/10 01:30:21;;;;;;;17.20;10.15;;;;;;;14.80;68.54;101840.00;7394274;19;20018;-59
2022/05/10 01:35:54;;;;;;;17.42;11.00;;;;;;;14.76;68.89;101841.06;7394664;19;20018;-59
2022/05/10 01:38:32;;;;;;;18.63;12.05;;;;;;;14.79;68.20;101844.44;7395124;19;20021;-59
2022/05/10 01:41:09;;;;;;;18.45;11.32;;;;;;;14.69;69.04;101837.88;7393901;19;20337;-59
2022/05/10 01:43:43;;;;;;;15.13;11.07;;;;;;;14.70;68.98;101832.50;7395075;19;20127;-59
2022/05/10 01:46:19;;;;;;;23.63;13.20;;;;;;;14.71;68.33;101830.72;7393378;19;20488;-59
2022/05/10 01:48:52;;;;;;;19.23;13.55;;;;;;;14.66;68.52;101833.56;7394813;19;20018;-59
2022/05/10 01:51:26;;;;;;;20.10;12.73;;;;;;;14.45;69.43;101830.06;7393454;19;20018;-58
2022/05/10 01:53:55;;;;;;;21.13;13.18;;;;;;;14.37;69.98;101826.94;7393341;19;20019;-56
2022/05/10 01:56:27;;;;;;;18.27;12.20;;;;;;;14.60;68.96;101818.00;7392828;19;20011;-54
2022/05/10 01:58:57;;;;;;;18.45;12.48;;;;;;;14.41;70.77;101811.84;7394248;19;20011;-58
2022/05/10 02:01:35;;;;;;;16.55;14.07;;;;;;;14.36;70.40;101817.31;7393631;19;20018;-55
2022/05/10 02:04:11;;;;;;;17.80;14.13;;;;;;;14.37;70.59;101813.75;7391412;19;20025;-56
2022/05/10 02:06:46;;;;;;;23.40;14.18;;;;;;;14.48;69.97;101810.63;7392454;19;20011;-57
2022/05/10 02:09:32;;;;;;;15.63;13.18;;;;;;;14.43;71.52;101809.97;7393268;19;20010;-54
2022/05/10 02:12:06;;;;;;;19.45;12.93;;;;;;;14.21;72.30;101803.00;7393377;19;20041;-59
2022/05/10 02:14:40;;;;;;;20.27;15.57;;;;;;;14.41;70.57;101806.56;7394339;19;20026;-59
2022/05/10 02:17:17;;;;;;;18.98;14.23;;;;;;;14.53;70.50;101801.59;7391477;19;20022;-56
2022/05/10 02:19:50;;;;;;;19.33;14.60;;;;;;;14.32;71.71;101802.56;7393164;19;20030;-58
2022/05/10 02:22:23;;;;;;;19.20;14.02;;;;;;;14.48;71.04;101794.81;7392721;19;20033;-58
2022/05/10 02:24:59;;;;;;;16.60;13.75;;;;;;;14.36;72.50;101791.78;7393830;19;20102;-58
2022/05/10 02:27:36;;;;;;;21.33;14.30;;;;;;;14.22;73.37;101782.78;7393375;19;20022;-59
2022/05/10 02:30:08;;;;;;;19.65;14.40;;;;;;;14.22;73.46;101783.66;7392311;19;20078;-56
2022/05/10 02:35:25;;;;;;;20.40;14.90;;;;;;;14.34;72.60;101779.59;7392984;19;20047;-56
2022/05/10 02:37:54;;;;;;;19.00;13.65;;;;;;;14.21;73.27;101776.66;7393090;19;20246;-61
2022/05/10 02:40:23;;;;;;;21.25;14.25;;;;;;;14.16;74.51;101768.09;7390307;19;20775;-57
2022/05/10 02:42:52;;;;;;;21.48;14.05;;;;;;;14.09;73.66;101770.16;7389032;19;20018;-59
2022/05/10 02:45:21;;;;;;;19.48;14.25;;;;;;;14.02;74.60;101773.97;7392316;19;20033;-56
2022/05/10 02:47:53;;;;;;;23.00;15.98;;;;;;;14.32;73.12;101766.47;7392578;19;20018;-58
2022/05/10 02:50:26;;;;;;;21.47;14.27;;;;;;;14.18;73.80;101777.66;7392852;19;20392;-56
2022/05/10 02:52:55;;;;;;;20.55;14.25;;;;;;;14.27;73.35;101776.41;7392821;19;20015;-59
2022/05/10 02:55:29;;;;;;;25.13;13.35;;;;;;;14.23;73.33;101779.22;7391123;19;20022;-58
2022/05/10 02:58:03;;;;;;;19.48;14.80;;;;;;;14.31;74.09;101772.72;7392218;19;20015;-56
2022/05/10 03:00:32;;;;;;;19.92;14.10;;;;;;;14.22;73.68;101772.25;7392224;19;20015;-57
2022/05/10 03:03:10;;;;;;;20.92;14.15;;;;;;;14.22;75.14;101766.97;7390696;19;20025;-57
2022/05/10 03:05:39;;;;;;;21.08;14.25;;;;;;;14.19;74.29;101767.97;7390973;19;20019;-59
2022/05/10 03:08:08;;;;;;;18.35;13.93;;;;;;;14.10;74.38;101763.97;7391957;19;20018;-58
2022/05/10 03:10:37;;;;;;;18.85;13.50;;;;;;;14.11;74.88;101764.81;7390814;19;20018;-56
2022/05/10 03:13:06;;;;;;;19.73;13.75;;;;;;;14.09;75.28;101759.59;7392313;19;20021;-57
2022/05/10 03:15:35;;;;;;;18.73;14.15;;;;;;;14.03;75.42;101751.97;7390243;19;20022;-58
2022/05/10 03:18:07;;;;;;;20.00;13.98;;;;;;;14.18;74.03;101750.44;7392057;19;20010;-57
2022/05/10 03:20:36;;;;;;;21.95;14.32;;;;;;;13.99;75.25;101753.03;7391196;19;20082;-57
2022/05/10 03:23:05;;;;;;;21.85;14.40;;;;;;;13.98;74.63;101749.56;7390343;19;20468;-56
2022/05/10 03:25:34;;;;;;;22.60;14.35;;;;;;;14.04;75.57;101748.44;7390932;19;20018;-56
2022/05/10 03:28:03;;;;;;;18.50;14.50;;;;;;;14.04;75.57;101748.44;7391934;19;20041;-56
2022/05/10 03:30:33;;;;;;;22.05;13.77;;;;;;;13.97;75.99;101742.56;7390033;19;20018;-57
2022/05/10 03:33:02;;;;;;;18.55;13.27;;;;;;;13.98;75.68;101738.13;7390854;19;20015;-57
2022/05/10 03:35:34;;;;;;;19.73;13.15;;;;;;;14.01;76.17;101738.88;7390422;19;20014;-57
2022/05/10 03:38:03;;;;;;;17.90;13.10;;;;;;;14.02;76.28;101739.72;7391756;19;20025;-60
2022/05/10 03:40:32;;;;;;;21.10;13.75;;;;;;;14.04;75.81;101734.38;7389818;19;20053;-60
2022/05/10 03:43:01;;;;;;;17.35;13.00;;;;;;;13.93;75.69;101735.72;7389264;19;20018;-58
2022/05/10 03:45:30;;;;;;;20.10;14.57;;;;;;;13.97;75.75;101734.66;7389994;19;20022;-60
2022/05/10 03:47:59;;;;;;;18.33;14.13;;;;;;;13.93;76.47;101732.22;7390966;19;20013;-59
2022/05/10 03:50:28;;;;;;;24.67;15.88;;;;;;;13.84;76.13;101728.22;7389589;19;20023;-60
2022/05/10 03:53:00;;;;;;;20.55;14.18;;;;;;;13.95;75.97;101722.47;7390406;19;20018;-60
2022/05/10 03:55:31;;;;;;;18.63;14.73;;;;;;;13.90;76.34;101722.69;7389869;19;20031;-60
2022/05/10 03:57:59;;;;;;;23.25;16.67;;;;;;;13.92;76.65;101727.88;7390905;19;20014;-60
2022/05/10 04:00:30;;;;;;;23.42;17.23;;;;;;;13.79;76.38;101717.84;7389950;19;20018;-60
2022/05/10 04:03:00;;;;;;;22.70;16.75;;;;;;;13.76;76.42;101719.78;7391542;19;20025;-60
2022/05/10 04:05:30;;;;;;;22.38;17.08;;;;;;;13.76;76.40;101720.63;7391049;19;20015;-61
2022/05/10 04:08:01;;;;;;;25.90;17.42;;;;;;;13.81;76.04;101716.03;7391808;19;20033;-61
2022/05/10 04:10:30;;;;;;;23.83;18.15;;;;;;;13.91;75.53;101720.88;7390733;19;20018;-63
2022/05/10 04:12:59;;;;;;;24.42;18.83;;;;;;;13.83;75.80;101719.44;7391384;19;20435;-61
2022/05/10 04:15:28;;;;;;;23.40;18.30;;;;;;;13.88;75.59;101721.88;7390555;19;20018;-61
2022/05/10 04:17:57;;;;;;;26.58;19.17;;;;;;;13.83;76.12;101719.44;7390515;19;20014;-60
2022/05/10 04:20:26;;;;;;;22.90;18.35;;;;;;;13.72;76.49;101720.84;7389447;19;20106;-61
2022/05/10 04:22:55;;;;;;;23.25;18.40;;;;;;;13.72;76.68;101719.03;7389292;19;20501;-60
2022/05/10 04:25:26;;;;;;;30.73;18.60;;;;;;;13.75;76.71;101712.78;7389990;19;20026;-60
2022/05/10 04:27:56;;;;;;;27.23;18.70;;;;;;;13.83;76.64;101716.81;7387591;19;20642;-60
2022/05/10 04:30:25;;;;;;;22.77;16.90;;;;;;;13.76;76.93;101714.50;7389052;19;20020;-61
2022/05/10 04:32:54;;;;;;;25.52;18.45;;;;;;;13.78;76.89;101712.66;7390326;19;20011;-60
2022/05/10 04:35:23;;;;;;;29.02;19.52;;;;;;;13.84;76.64;101713.25;7389134;19;20021;-60
2022/05/10 04:37:52;;;;;;;25.83;20.08;;;;;;;13.78;76.34;101710.03;7389511;19;20011;-62
2022/05/10 04:43:05;;;;;;;29.15;20.75;;;;;;;13.88;76.32;101706.06;7388941;19;20019;-60
2022/05/10 04:45:34;;;;;;;26.60;20.92;;;;;;;13.97;76.31;101707.44;7389040;19;20018;-60
2022/05/10 04:48:03;;;;;;;28.27;21.38;;;;;;;13.97;76.18;101705.66;7389757;19;20419;-60
2022/05/10 04:50:32;;;;;;;26.98;20.63;;;;;;;14.05;75.93;101709.75;7388939;19;20369;-60
2022/05/10 04:53:01;;;;;;;25.33;20.90;;;;;;;14.09;76.30;101720.06;7389357;19;20011;-61
2022/05/10 04:55:30;;;;;;;23.77;20.63;;;;;;;14.19;75.96;101710.81;7389077;19;20022;-61
2022/05/10 04:57:59;;;;;;;40.17;26.60;;;;;;;14.15;76.20;101711.03;7389650;19;20022;-59
2022/05/10 05:00:32;;;;;;;32.70;23.08;;;;;;;14.12;76.07;101716.44;7388246;19;20020;-62
2022/05/10 05:03:01;;;;;;;41.90;22.02;;;;;;;14.13;75.97;101713.75;7388254;19;20019;-61
2022/05/10 05:05:30;;;;;;;30.00;21.25;;;;;;;14.19;76.08;101709.97;7388015;19;20025;-60
2022/05/10 05:07:58;;;;;;;34.40;24.75;;;;;;;14.10;76.10;101713.88;7388596;19;20014;-60
2022/05/10 05:10:28;;;;;;;30.88;22.95;;;;;;;14.27;76.06;101709.63;7388270;19;20018;-60
2022/05/10 05:12:57;;;;;;;29.50;22.60;;;;;;;14.32;76.04;101710.28;7389053;19;20010;-60
2022/05/10 05:15:26;;;;;;;29.63;22.27;;;;;;;14.42;75.31;101710.72;7388816;19;20019;-60
2022/05/10 05:17:57;;;;;;;28.20;21.77;;;;;;;14.30;75.61;101709.47;7389246;19;20014;-60
2022/05/10 05:20:26;;;;;;;28.70;22.45;;;;;;;14.35;76.00;101715.41;7388373;19;20034;-64
2022/05/10 05:22:57;;;;;;;34.13;24.33;;;;;;;14.43;75.51;101709.75;7387141;19;20086;-61
2022/05/10 05:25:26;;;;;;;29.88;24.17;;;;;;;14.35;75.39;101712.75;7387958;19;20372;-60
2022/05/10 05:27:55;;;;;;;31.95;24.58;;;;;;;14.43;75.40;101709.75;7387941;19;20014;-61
2022/05/10 05:30:24;;;;;;;34.85;24.83;;;;;;;14.56;75.11;101718.84;7387274;19;20026;-62
2022/05/10 05:32:53;;;;;;;32.17;24.80;;;;;;;14.57;75.07;101711.78;7388368;19;20018;-61
2022/05/10 05:35:24;;;;;;;31.15;24.13;;;;;;;14.62;75.04;101710.66;7387559;19;20503;-61
2022/05/10 05:37:54;;;;;;;39.88;25.45;;;;;;;14.64;75.34;101713.22;7388600;19;20010;-62
2022/05/10 05:40:25;;;;;;;35.70;25.08;;;;;;;14.62;75.61;101712.44;7394648;19;20029;-61
2022/05/10 05:42:55;;;;;;;40.55;25.23;;;;;;;14.58;74.51;101721.41;7394323;19;20011;-62
2022/05/10 05:45:25;;;;;;;30.02;25.02;;;;;;;14.58;75.15;101711.69;7394753;19;20034;-62
2022/05/10 05:47:58;;;;;;;32.05;25.08;;;;;;;14.52;74.81;101712.00;7395393;19;20074;-62
2022/05/10 05:50:30;;;;;;;31.50;24.40;;;;;;;14.60;74.73;101706.34;7392408;19;20030;-61
2022/05/10 05:53:00;;;;;;;32.87;25.50;;;;;;;14.72;74.53;101708.44;7392633;19;20511;-61
2022/05/10 05:55:30;;;;;;;34.75;25.30;;;;;;;14.76;74.70;101706.50;7394635;19;20025;-62
2022/05/10 05:58:00;;;;;;;30.58;25.23;;;;;;;14.79;74.23;101704.59;7394428;19;20014;-62
2022/05/10 06:00:30;;;;;;;35.17;25.48;;;;;;;14.90;74.24;101711.13;7394356;19;20014;-62
2022/05/10 06:02:59;;;;;;;36.13;26.38;;;;;;;14.92;74.20;101704.84;7394040;19;20022;-62
2022/05/10 06:05:31;;;;;;;39.75;26.65;;;;;;;14.88;73.61;101700.66;7393728;19;20105;-62
2022/05/10 06:08:01;;;;;;;39.20;26.53;;;;;;;15.01;73.88;101695.63;7395284;19;20022;-62
2022/05/10 06:10:29;;;;;;;32.63;26.08;;;;;;;15.04;73.81;101692.84;7395358;19;20014;-62
2022/05/10 06:13:03;;;;;;;39.53;28.02;;;;;;;15.09;73.36;101696.13;7397563;19;20003;-61
2022/05/10 06:15:33;;;;;;;34.33;27.38;;;;;;;15.11;73.67;101696.03;7394896;19;20352;-62
2022/05/10 06:18:04;;;;;;;40.55;27.88;;;;;;;15.01;73.46;101693.00;7395372;19;20010;-61
2022/05/10 06:20:35;;;;;;;35.33;26.63;;;;;;;15.17;73.30;101696.59;7396114;19;20023;-62
2022/05/10 06:23:04;;;;;;;37.38;27.70;;;;;;;15.24;73.04;101699.75;7394989;19;20047;-64
2022/05/10 06:25:35;;;;;;;38.55;28.15;;;;;;;15.30;72.78;101694.19;7396087;19;20021;-61
2022/05/10 06:28:03;;;;;;;38.28;28.58;;;;;;;15.39;72.98;101688.44;7395976;19;20011;-60
2022/05/10 06:30:33;;;;;;;39.50;28.30;;;;;;;15.36;72.45;101685.13;7395066;19;20021;-62
2022/05/10 06:33:02;;;;;;;75.07;31.80;;;;;;;15.45;72.71;101687.28;7395912;19;20010;-60
2022/05/10 06:35:31;;;;;;;49.97;29.20;;;;;;;15.57;72.47;101689.31;7395250;19;20030;-63
2022/05/10 06:40:44;;;;;;;41.97;29.60;;;;;;;15.73;71.64;101683.19;7394117;19;20026;-62
2022/05/10 06:43:14;;;;;;;68.13;31.30;;;;;;;15.93;71.47;101683.97;7394802;19;20019;-62
2022/05/10 06:45:46;;;;;;;45.10;27.52;;;;;;;16.01;69.65;101674.69;7393069;19;20469;-62
2022/05/10 06:48:16;;;;;;;36.72;25.67;;;;;;;16.04;69.67;101671.88;7395367;19;20029;-62
2022/05/10 06:50:46;;;;;;;41.90;27.88;;;;;;;16.08;69.89;101675.25;7392789;19;20015;-60
2022/05/10 06:53:18;;;;;;;61.67;28.05;;;;;;;16.20;69.99;101665.78;7394622;19;20018;-61
2022/05/10 06:55:47;;;;;;;77.88;29.90;;;;;;;16.34;68.96;101662.38;7393365;19;20029;-61
2022/05/10 06:58:16;;;;;;;36.40;25.73;;;;;;;16.29;67.86;101662.66;7394766;19;20006;-63
2022/05/10 07:00:45;;;;;;;39.72;26.60;;;;;;;16.45;66.98;101662.66;7393878;19;20038;-61
2022/05/10 07:03:16;;;;;;;38.03;27.33;;;;;;;16.76;66.03;101658.25;7394203;19;20353;-63
2022/05/10 07:05:47;;;;;;;36.30;26.42;;;;;;;16.60;67.07;101664.41;7394206;19;20015;-62
2022/05/10 07:08:18;;;;;;;44.83;27.13;;;;;;;16.60;66.58;101655.63;7394401;19;20425;-63
2022/05/10 07:10:47;;;;;;;34.35;27.30;;;;;;;16.69;66.96;101649.84;7393915;19;20480;-62
2022/05/10 07:13:17;;;;;;;33.25;27.10;;;;;;;16.72;67.58;101648.78;7394803;19;20014;-63
2022/05/10 07:15:46;;;;;;;35.13;26.35;;;;;;;16.82;67.67;101644.69;7394153;19;20022;-63
2022/05/10 07:18:16;;;;;;;36.75;26.70;;;;;;;16.84;67.05;101645.44;7393647;19;20039;-61
2022/05/10 07:20:46;;;;;;;42.17;27.45;;;;;;;17.02;66.65;101645.34;7393679;19;20022;-61
2022/05/10 07:23:21;;;;;;;35.65;25.48;;;;;;;17.11;67.17;101637.72;7393400;19;20023;-61
2022/05/10 07:25:50;;;;;;;29.08;24.55;;;;;;;17.17;67.37;101644.47;7392613;19;20018;-62
2022/05/10 07:28:19;;;;;;;40.22;23.92;;;;;;;17.30;66.67;101637.47;7393465;19;20010;-60
2022/05/10 07:30:49;;;;;;;28.33;22.10;;;;;;;17.47;65.01;101638.28;7392797;19;20567;-61
2022/05/10 07:33:20;;;;;;;30.80;22.45;;;;;;;17.53;65.87;101632.59;7393746;19;20368;-62
2022/05/10 07:38:38;;;;;;;27.42;20.10;;;;;;;18.06;63.59;101627.59;7392758;19;20017;-64
2022/05/10 07:41:07;;;;;;;24.25;19.67;;;;;;;18.16;62.82;101630.53;7392375;19;20085;-62
2022/05/10 07:43:38;;;;;;;25.45;19.20;;;;;;;18.53;62.22;101622.03;7391037;19;20018;-62
2022/05/10 07:46:09;;;;;;;23.67;19.58;;;;;;;18.67;60.94;101622.81;7391352;19;20010;-62
2022/05/10 07:48:37;;;;;;;23.85;19.45;;;;;;;18.73;60.82;101620.72;7393174;19;20025;-62
2022/05/10 07:51:07;;;;;;;26.33;20.63;;;;;;;18.74;60.54;101617.94;7392157;19;20021;-62
2022/05/10 07:53:40;;;;;;;26.10;20.92;;;;;;;18.93;59.38;101619.41;7392653;19;20021;-62
2022/05/10 07:56:11;;;;;;;23.38;20.00;;;;;;;18.99;59.96;101617.19;7392008;19;20046;-62
2022/05/10 07:58:40;;;;;;;24.95;20.17;;;;;;;18.92;59.87;101621.19;7392691;19;20022;-62
2022/05/10 08:01:10;;;;;;;26.90;19.38;;;;;;;19.08;60.42;101618.34;7389816;19;20022;-62
2022/05/10 08:03:39;;;;;;;21.13;18.63;;;;;;;19.47;57.82;101616.59;7391284;19;20026;-62
2022/05/10 08:06:08;;;;;;;43.47;20.10;;;;;;;19.83;57.26;101617.66;7391163;19;20364;-62
2022/05/10 08:08:39;;;;;;;28.65;18.48;;;;;;;19.86;57.69;101620.09;7391641;19;20105;-62
2022/05/10 08:11:09;;;;;;;19.92;17.63;;;;;;;19.81;57.45;101608.94;7391771;19;20014;-61
2022/05/10 08:13:39;;;;;;;23.58;18.52;;;;;;;19.48;57.90;101610.31;7390692;19;20085;-62
2022/05/10 08:16:09;;;;;;;20.23;18.05;;;;;;;19.52;57.94;101608.31;7390078;19;20018;-60
2022/05/10 08:18:40;;;;;;;21.30;17.33;;;;;;;19.59;58.42;101603.41;7390568;19;20014;-61
2022/05/10 08:21:10;;;;;;;36.33;19.17;;;;;;;19.63;57.10;101597.78;7390999;19;20472;-63
2022/05/10 08:23:42;;;;;;;21.38;17.63;;;;;;;19.63;57.37;101604.88;7390614;19;20462;-61
2022/05/10 08:26:11;;;;;;;25.50;16.88;;;;;;;19.78;57.33;101595.00;7390468;19;20014;-61
2022/05/10 08:28:40;;;;;;;18.90;16.33;;;;;;;19.90;56.91;101587.97;7391517;19;20014;-62
2022/05/10 08:31:10;;;;;;;19.80;16.25;;;;;;;19.90;57.54;101585.31;7387538;19;20021;-62
2022/05/10 08:33:42;;;;;;;20.13;15.80;;;;;;;19.98;57.68;101586.44;7387352;19;20348;-62
2022/05/10 08:36:11;;;;;;;24.73;16.38;;;;;;;20.03;57.92;101596.75;7389312;19;20007;-63
2022/05/10 08:38:43;;;;;;;21.25;15.70;;;;;;;20.03;58.25;101592.31;7391252;19;20018;-60
2022/05/10 08:41:16;;;;;;;16.27;14.57;;;;;;;20.03;57.61;101594.09;7389592;19;20014;-62
2022/05/10 08:43:49;;;;;;;23.42;15.32;;;;;;;19.94;57.12;101594.78;7390100;19;20030;-62
2022/05/10 08:46:20;;;;;;;22.45;14.63;;;;;;;20.07;56.56;101589.41;7389336;19;20022;-63
2022/05/10 08:48:53;;;;;;;18.08;14.20;;;;;;;19.98;57.10;101583.78;7389842;19;20082;-62
2022/05/10 08:51:22;;;;;;;23.10;14.10;;;;;;;19.96;57.49;101584.84;7389822;19;20360;-61
2022/05/10 08:53:54;;;;;;;22.00;14.85;;;;;;;19.88;58.39;101577.44;7390324;19;20070;-62
2022/05/10 08:56:27;;;;;;;16.88;14.00;;;;;;;19.86;57.28;101579.38;7389717;19;20011;-62
2022/05/10 08:59:05;;;;;;;22.13;13.93;;;;;;;19.99;57.07;101580.19;7390985;19;20018;-62
2022/05/10 09:01:38;;;;;;;14.50;12.77;;;;;;;19.96;57.90;101572.44;7390595;19;20022;-61
2022/05/10 09:04:17;;;;;;;15.95;11.20;;;;;;;19.84;56.70;101574.16;7389507;19;20010;-62
2022/05/10 09:06:54;;;;;;;12.82;10.98;;;;;;;20.08;55.82;101572.50;7388080;19;20018;-62
2022/05/10 09:09:29;;;;;;;15.05;10.20;;;;;;;20.05;56.99;101570.91;7389656;19;20014;-63
2022/05/10 09:12:09;;;;;;;15.20;11.48;;;;;;;20.08;56.47;101559.19;7390007;19;20040;-61
2022/05/10 09:14:50;;;;;;;17.13;10.68;;;;;;;20.05;57.05;101563.75;7397255;19;20332;-61
2022/05/10 09:17:22;;;;;;;16.75;10.80;;;;;;;20.26;55.48;101557.84;7394605;19;20022;-62
2022/05/10 09:19:53;;;;;;;13.90;10.40;;;;;;;20.31;54.52;101558.34;7397401;19;20014;-62
2022/05/10 09:22:34;;;;;;;12.02;9.38;;;;;;;20.29;54.63;101551.44;7396712;19;20015;-61
2022/05/10 09:25:18;;;;;;;14.50;10.48;;;;;;;20.41;55.70;101550.53;7394678;19;20029;-61
2022/05/10 09:27:48;;;;;;;16.33;9.63;;;;;;;20.47;53.54;101552.72;7396695;19;20018;-61
2022/05/10 09:30:27;;;;;;;14.77;10.40;;;;;;;20.55;54.33;101547.69;7395694;19;20395;-62
2022/05/10 09:35:58;;;;;;;20.33;10.45;;;;;;;20.95;52.32;101545.66;7394491;19;20015;-62
2022/05/10 09:38:27;;;;;;;15.30;9.05;;;;;;;20.85;51.14;101545.53;7397096;19;20019;-59
2022/05/10 09:40:58;;;;;;;12.65;8.02;;;;;;;21.34;51.58;101532.88;7396158;19;20402;-58
2022/05/10 09:43:29;;;;;;;59.53;10.63;;;;;;;21.63;51.42;101530.56;7396591;19;20014;-58
2022/05/10 09:46:10;;;;;;;17.55;8.70;;;;;;;21.70;50.40;101531.78;7395159;19;20491;-58
2022/05/10 09:48:42;;;;;;;13.00;7.63;;;;;;;21.86;48.88;101526.03;7396917;19;20025;-58
2022/05/10 09:51:26;;;;;;;37.80;9.05;;;;;;;22.11;47.78;101546.25;7396733;19;20014;-63
2022/05/10 09:53:58;;;;;;;28.60;8.10;;;;;;;21.80;47.93;101531.06;7394712;19;20341;-62
2022/05/10 09:56:39;;;;;;;31.23;8.07;;;;;;;21.91;47.18;101525.69;7394519;19;20022;-61
2022/05/10 09:59:32;;;;;;;25.40;7.75;;;;;;;21.88;47.30;101532.13;7391955;19;20427;-66
2022/05/10 10:02:03;;;;;;;21.10;7.05;;;;;;;22.38;48.20;101526.31;7397399;19;20514;-63
2022/05/10 10:04:34;;;;;;;15.65;7.00;;;;;;;22.62;45.39;101525.19;7375030;19;20057;-63
2022/05/10 10:07:10;;;;;;;20.65;7.00;;;;;;;22.08;46.24;101541.19;7399050;19;20019;-69
2022/05/10 10:09:43;;;;;;;19.58;7.68;;;;;;;22.13;46.09;101522.09;7404031;19;20015;-61
2022/05/10 10:12:19;;;;;;;;;;;;;;;22.02;45.95;101527.47;7401883;19;20049;-65
2022/05/10 10:14:51;;;;;;;28.02;7.90;;;;;;;22.30;47.13;101508.19;7399950;19;19926;-65
2022/05/10 10:17:24;;;;;;;15.48;7.18;;;;;;;22.60;45.75;101522.66;7398703;19;20022;-64
2022/05/10 10:19:58;;;;;;;19.63;7.15;;;;;;;23.15;46.02;101518.94;7400609;19;20083;-64
2022/05/10 10:22:36;;;;;;;16.48;7.07;;;;;;;22.98;45.58;101518.56;7396889;19;20014;-64
2022/05/10 10:25:11;;;;;;;15.25;6.50;;;;;;;23.02;45.67;101523.63;7390744;19;20025;-64
2022/05/10 10:27:48;;;;;;;35.40;7.97;;;;;;;23.16;44.85;101507.28;7393542;19;20054;-62
2022/05/10 10:30:24;;;;;;;29.83;7.85;;;;;;;23.44;45.21;101515.53;7393482;19;20028;-64
2022/05/10 10:33:01;;;;;;;10.85;6.50;;;;;;;23.06;44.19;101503.69;7394485;19;20396;-63
2022/05/10 10:35:38;;;;;;;8.85;6.32;;;;;;;22.95;43.84;101507.28;7393512;19;20030;-62
2022/05/10 10:38:17;;;;;;;15.82;6.93;;;;;;;22.94;44.76;101506.44;7393616;19;20105;-63
2022/05/10 10:40:50;;;;;;;19.45;6.63;;;;;;;22.93;45.02;101504.72;7393933;19;20617;-62
2022/05/10 10:43:27;;;;;;;23.63;7.32;;;;;;;23.15;44.15;101505.56;7393777;19;20019;-62
2022/05/10 10:46:04;;;;;;;12.35;6.97;;;;;;;22.94;43.60;101500.25;7390754;19;20018;-61
2022/05/10 10:48:44;;;;;;;13.30;6.75;;;;;;;23.05;43.78;101507.31;7393787;19;20349;-64
2022/05/10 10:51:15;;;;;;;11.93;6.50;;;;;;;23.25;44.23;101501.13;7393005;19;20018;-63
2022/05/10 10:53:46;;;;;;;15.65;7.03;;;;;;;23.14;43.95;101504.75;7394809;19;20018;-62
2022/05/10 10:56:38;;;;;;;18.80;7.60;;;;;;;22.74;44.13;101486.78;7391052;19;20028;-62
2022/05/10 10:59:35;;;;;;;15.15;7.47;;;;;;;22.69;44.45;101490.81;7392445;19;20019;-62
2022/05/10 11:02:26;;;;;;;18.42;6.90;;;;;;;22.89;45.06;101484.59;7392943;19;20348;-62
2022/05/10 11:05:14;;;;;;;9.57;7.43;;;;;;;23.21;44.00;101490.81;7391736;19;20333;-64
2022/05/10 11:07:54;;;;;;;16.42;6.97;;;;;;;23.31;44.11;101479.19;7392876;19;20361;-61
2022/05/10 11:10:44;;;;;;;20.48;7.90;;;;;;;23.00;44.25;101486.34;7392049;19;20014;-62
2022/05/10 11:13:30;;;;;;;19.55;8.27;;;;;;;22.90;44.89;101475.59;7392931;19;20022;-61
2022/05/10 11:16:15;;;;;;;19.73;7.95;;;;;;;23.02;44.38;101471.00;7390074;19;20006;-63
2022/05/10 11:19:04;;;;;;;26.65;7.63;;;;;;;23.02;45.07;101464.84;7392437;19;20015;-62
2022/05/10 11:21:42;;;;;;;16.17;7.82;;;;;;;22.98;45.23;101473.13;7392033;19;20011;-61
2022/05/10 11:24:25;;;;;;;12.93;6.70;;;;;;;23.25;44.36;101450.31;7391985;19;20026;-60
2022/05/10 11:27:08;;;;;;;14.32;6.20;;;;;;;23.09;43.90;101464.16;7390671;19;20014;-63
2022/05/10 11:30:00;;;;;;;14.52;6.20;;;;;;;22.81;43.18;101465.72;7390000;19;20022;-60
2022/05/10 11:32:47;;;;;;;14.68;5.90;;;;;;;22.76;43.39;101455.41;7390392;19;20029;-61
2022/05/10 11:35:28;;;;;;;10.75;6.05;;;;;;;22.78;42.97;101452.59;7389076;19;20022;-65
2022/05/10 11:38:03;;;;;;;11.63;5.82;;;;;;;22.71;42.92;101462.13;7391728;19;20021;-58
2022/05/10 11:40:55;;;;;;;13.85;6.60;;;;;;;22.74;43.07;101441.34;7391188;19;20010;-62
2022/05/10 11:43:57;;;;;;;14.83;6.87;;;;;;;22.97;44.39;101451.88;7391845;19;20018;-60
2022/05/10 11:47:00;;;;;;;117.68;15.07;;;;;;;22.73;44.10;101439.66;7389802;19;20822;-59
2022/05/10 11:49:43;;;;;;;11.32;6.78;;;;;;;22.77;43.86;101446.41;7390903;19;20025;-60
2022/05/10 11:52:36;;;;;;;12.63;7.25;;;;;;;22.74;44.49;101440.50;7391592;19;20014;-61
2022/05/10 11:55:21;;;;;;;10.75;6.95;;;;;;;22.76;44.13;101431.38;7390801;19;20014;-61